Time;durP1;ratioP1;P1;durP2;ratioP2;P2;SDS_P1;SDS_P2;PMS_P1;PMS_P2;Temp;Humidity;BMP_temperature;BMP_pressure;BME280_temperature;BME280_humidity;BME280_pressure;Samples;Min_cycle;Max_cycle;Signal;HPM_P1;HPM_P2
2022/11/08 00:02:11;;;;;;;90.53;76.78;;;;;;;;;;5081336;28;20043;-77
2022/11/08 00:04:37;;;;;;;101.68;84.05;;;;;;;;;;5073987;28;20024;-74
2022/11/08 00:15:15;;;;;;;103.40;88.65;;;;;;;;;;5081329;28;20114;-75
2022/11/08 00:17:41;;;;;;;97.43;83.18;;;;;;;;;;5082030;28;20127;-75
2022/11/08 00:20:07;;;;;;;103.80;88.13;;;;;;;;;;5074661;28;20439;-76
2022/11/08 00:22:33;;;;;;;99.40;84.55;;;;;;;;;;5068573;28;20049;-74
2022/11/08 00:24:58;;;;;;;98.40;82.45;;;;;;;;;;5077802;28;20032;-75
2022/11/08 00:27:24;;;;;;;88.60;73.97;;;;;;;;;;5072760;28;20043;-75
2022/11/08 00:29:49;;;;;;;90.90;75.30;;;;;;;;;;5077987;28;20020;-75
2022/11/08 00:32:18;;;;;;;80.95;69.40;;;;;;;;;;5080869;28;20101;-75
2022/11/08 00:34:44;;;;;;;83.07;70.25;;;;;;;;;;5080293;28;20415;-75
2022/11/08 00:37:10;;;;;;;105.65;86.90;;;;;;;;;;5078292;28;20062;-74
2022/11/08 00:39:35;;;;;;;104.78;90.32;;;;;;;;;;5073091;28;20089;-76
2022/11/08 00:42:01;;;;;;;107.25;89.00;;;;;;;;;;5073005;28;20028;-75
2022/11/08 00:44:26;;;;;;;113.38;93.50;;;;;;;;;;5071011;28;20059;-74
2022/11/08 00:46:52;;;;;;;156.23;123.05;;;;;;;;;;5075960;28;20040;-75
2022/11/08 00:49:17;;;;;;;124.57;104.38;;;;;;;;;;5085257;28;20095;-77
2022/11/08 00:51:43;;;;;;;125.78;97.72;;;;;;;;;;5084696;28;20032;-74
2022/11/08 00:54:09;;;;;;;120.68;97.60;;;;;;;;;;5082568;28;20085;-74
2022/11/08 00:56:34;;;;;;;117.13;94.15;;;;;;;;;;5076702;28;20038;-75
2022/11/08 00:59:00;;;;;;;111.50;93.18;;;;;;;;;;5085203;28;20332;-75
2022/11/08 01:01:25;;;;;;;110.65;90.93;;;;;;;;;;5085533;28;20265;-75
2022/11/08 01:03:51;;;;;;;137.73;111.88;;;;;;;;;;5072742;28;20054;-75
2022/11/08 01:06:17;;;;;;;133.98;105.15;;;;;;;;;;5082591;28;20733;-77
2022/11/08 01:08:43;;;;;;;122.15;94.88;;;;;;;;;;5085365;28;20128;-76
2022/11/08 01:11:11;;;;;;;127.18;105.13;;;;;;;;;;5084092;28;20423;-75
2022/11/08 01:13:36;;;;;;;188.85;138.85;;;;;;;;;;5081576;28;20039;-76
2022/11/08 01:16:09;;;;;;;139.88;105.68;;;;;;;;;;5076716;28;20020;-76
2022/11/08 01:18:34;;;;;;;97.53;72.90;;;;;;;;;;5083951;28;20087;-76
2022/11/08 01:21:00;;;;;;;93.35;72.43;;;;;;;;;;5084369;28;20063;-76
2022/11/08 01:23:26;;;;;;;79.70;61.67;;;;;;;;;;5084990;28;20020;-77
2022/11/08 01:25:51;;;;;;;83.35;62.50;;;;;;;;;;5084279;28;20039;-79
2022/11/08 01:28:16;;;;;;;89.15;65.50;;;;;;;;;;5084699;28;20040;-77
2022/11/08 01:30:42;;;;;;;86.57;61.42;;;;;;;;;;5084359;28;20038;-74
2022/11/08 01:33:08;;;;;;;87.78;64.18;;;;;;;;;;5085157;28;20149;-75
2022/11/08 01:35:34;;;;;;;82.88;59.30;;;;;;;;;;5084441;28;20365;-75
2022/11/08 01:38:00;;;;;;;82.03;59.47;;;;;;;;;;5084110;28;20043;-74
2022/11/08 01:40:26;;;;;;;79.78;55.03;;;;;;;;;;5083609;28;20020;-75
2022/11/08 01:42:52;;;;;;;82.18;59.35;;;;;;;;;;5084806;28;20046;-76
2022/11/08 01:45:36;;;;;;;80.57;55.15;;;;;;;;;;5083409;28;20382;-77
2022/11/08 01:48:01;;;;;;;85.88;56.40;;;;;;;;;;5084387;28;20130;-75
2022/11/08 01:50:27;;;;;;;86.13;60.42;;;;;;;;;;5083618;28;20058;-75
2022/11/08 01:52:54;;;;;;;76.85;55.85;;;;;;;;;;5084474;28;20059;-75
2022/11/08 01:55:28;;;;;;;81.78;54.70;;;;;;;;;;5084780;28;20105;-75
2022/11/08 01:58:00;;;;;;;80.10;54.47;;;;;;;;;;5084067;28;20032;-74
2022/11/08 02:00:25;;;;;;;82.03;54.97;;;;;;;;;;5083705;28;20477;-76
2022/11/08 02:02:55;;;;;;;81.32;54.22;;;;;;;;;;5084102;28;20020;-74
2022/11/08 02:05:23;;;;;;;77.53;50.20;;;;;;;;;;5082348;28;20050;-75
2022/11/08 02:08:00;;;;;;;72.80;47.70;;;;;;;;;;5083104;28;20032;-74
2022/11/08 02:10:28;;;;;;;70.93;50.42;;;;;;;;;;5070318;28;20034;-75
2022/11/08 02:12:53;;;;;;;68.55;46.70;;;;;;;;;;5082684;28;20033;-74
2022/11/08 02:15:20;;;;;;;69.28;47.67;;;;;;;;;;5073591;28;20028;-74
2022/11/08 02:17:45;;;;;;;64.72;43.88;;;;;;;;;;5082990;28;20182;-76
2022/11/08 02:20:11;;;;;;;63.42;44.33;;;;;;;;;;5054862;28;20115;-75
2022/11/08 02:22:40;;;;;;;73.28;50.92;;;;;;;;;;5083432;28;20724;-74
2022/11/08 02:25:05;;;;;;;62.22;43.33;;;;;;;;;;5082964;28;20451;-74
2022/11/08 02:27:31;;;;;;;78.20;52.80;;;;;;;;;;5079835;28;20066;-73
2022/11/08 02:29:56;;;;;;;64.35;44.25;;;;;;;;;;5082186;28;20127;-73
2022/11/08 02:32:22;;;;;;;62.90;43.72;;;;;;;;;;5083407;28;20027;-73
2022/11/08 02:35:07;;;;;;;55.08;40.60;;;;;;;;;;5083553;28;20039;-74
2022/11/08 02:37:32;;;;;;;58.20;40.85;;;;;;;;;;5081683;28;20016;-74
2022/11/08 02:39:58;;;;;;;60.70;43.17;;;;;;;;;;5082702;28;20132;-76
2022/11/08 02:42:23;;;;;;;55.90;41.58;;;;;;;;;;5083152;28;20426;-75
2022/11/08 02:44:48;;;;;;;61.25;45.53;;;;;;;;;;5081636;28;20075;-73
2022/11/08 02:47:14;;;;;;;67.93;48.72;;;;;;;;;;5082106;28;20110;-74
2022/11/08 02:49:39;;;;;;;61.88;44.08;;;;;;;;;;5082366;28;20476;-74
2022/11/08 02:52:05;;;;;;;63.53;45.28;;;;;;;;;;5083114;28;20024;-76
2022/11/08 02:54:30;;;;;;;60.40;45.50;;;;;;;;;;5081587;28;20032;-75
2022/11/08 02:56:55;;;;;;;63.60;45.67;;;;;;;;;;5072045;28;20382;-79
2022/11/08 02:59:21;;;;;;;62.17;44.10;;;;;;;;;;5063026;28;20467;-75
2022/11/08 03:01:46;;;;;;;66.53;46.92;;;;;;;;;;5082164;28;20036;-77
2022/11/08 03:04:11;;;;;;;61.72;43.55;;;;;;;;;;5071460;28;20035;-75
2022/11/08 03:06:37;;;;;;;65.97;47.13;;;;;;;;;;5082862;28;20367;-75
2022/11/08 03:09:03;;;;;;;63.08;44.67;;;;;;;;;;5083434;28;20345;-76
2022/11/08 03:11:28;;;;;;;62.08;43.67;;;;;;;;;;5083007;28;20448;-75
2022/11/08 03:13:53;;;;;;;56.60;40.20;;;;;;;;;;5081931;28;20126;-75
2022/11/08 03:16:18;;;;;;;59.78;42.80;;;;;;;;;;5082065;28;20099;-75
2022/11/08 03:18:44;;;;;;;64.10;45.00;;;;;;;;;;5083082;28;20144;-76
2022/11/08 03:21:09;;;;;;;61.40;43.45;;;;;;;;;;5082809;28;20110;-75
2022/11/08 03:23:35;;;;;;;62.50;44.47;;;;;;;;;;5083170;28;20062;-75
2022/11/08 03:26:03;;;;;;;65.72;45.92;;;;;;;;;;5078490;28;20035;-75
2022/11/08 03:28:29;;;;;;;56.95;39.47;;;;;;;;;;5072214;28;20066;-75
2022/11/08 03:30:55;;;;;;;54.25;40.28;;;;;;;;;;5070807;28;20052;-75
2022/11/08 03:33:20;;;;;;;53.78;39.53;;;;;;;;;;5082378;28;20054;-75
2022/11/08 03:35:49;;;;;;;49.80;37.38;;;;;;;;;;5080982;28;20032;-76
2022/11/08 03:38:14;;;;;;;53.85;39.80;;;;;;;;;;5081975;28;20520;-76
2022/11/08 03:40:41;;;;;;;51.65;40.03;;;;;;;;;;5082409;28;20058;-75
2022/11/08 03:43:06;;;;;;;54.22;40.40;;;;;;;;;;5081667;28;20103;-78
2022/11/08 03:45:31;;;;;;;57.65;42.35;;;;;;;;;;5082181;28;20107;-76
2022/11/08 03:47:57;;;;;;;57.05;41.22;;;;;;;;;;5082690;28;20768;-75
2022/11/08 03:50:22;;;;;;;57.35;41.15;;;;;;;;;;5082044;28;20690;-76
2022/11/08 03:52:49;;;;;;;52.92;40.40;;;;;;;;;;5082135;28;20443;-76
2022/11/08 03:55:14;;;;;;;57.17;42.63;;;;;;;;;;5081352;28;20032;-76
2022/11/08 03:57:40;;;;;;;55.40;40.88;;;;;;;;;;5082017;28;20081;-77
2022/11/08 04:00:07;;;;;;;54.78;41.33;;;;;;;;;;5081803;28;20032;-76
2022/11/08 04:02:32;;;;;;;56.78;40.80;;;;;;;;;;5082606;28;20078;-77
2022/11/08 04:04:57;;;;;;;59.75;45.15;;;;;;;;;;5082415;28;20382;-75
2022/11/08 04:07:23;;;;;;;69.13;50.58;;;;;;;;;;5082753;28;20492;-74
2022/11/08 04:09:48;;;;;;;64.63;45.97;;;;;;;;;;5083403;28;20099;-76
2022/11/08 04:15:16;;;;;;;54.20;41.85;;;;;;;;;;5086440;28;20101;-74
2022/11/08 04:23:10;;;;;;;57.17;40.80;;;;;;;;;;5085120;28;20070;-78
2022/11/08 04:25:35;;;;;;;55.05;40.83;;;;;;;;;;5086043;28;20077;-75
2022/11/08 04:28:00;;;;;;;53.17;40.50;;;;;;;;;;5086038;28;20117;-75
2022/11/08 04:30:26;;;;;;;59.92;44.03;;;;;;;;;;5084156;28;20431;-75
2022/11/08 04:32:51;;;;;;;50.30;37.95;;;;;;;;;;5084072;28;20032;-75
2022/11/08 04:35:16;;;;;;;52.60;38.72;;;;;;;;;;5081012;28;20027;-75
2022/11/08 04:37:42;;;;;;;51.70;36.85;;;;;;;;;;5076595;28;20027;-78
2022/11/08 04:40:08;;;;;;;51.15;39.75;;;;;;;;;;5084718;28;20068;-76
2022/11/08 04:42:33;;;;;;;54.25;40.63;;;;;;;;;;5077363;28;20024;-77
2022/11/08 04:44:58;;;;;;;57.83;42.55;;;;;;;;;;5081755;28;20761;-76
2022/11/08 04:47:23;;;;;;;61.83;46.25;;;;;;;;;;5085944;28;20447;-75
2022/11/08 04:49:49;;;;;;;53.40;42.22;;;;;;;;;;5085995;28;20033;-77
2022/11/08 04:52:14;;;;;;;54.17;40.72;;;;;;;;;;5086343;28;20338;-76
2022/11/08 04:54:43;;;;;;;58.60;41.70;;;;;;;;;;5085851;28;20023;-75
2022/11/08 04:57:09;;;;;;;56.42;43.28;;;;;;;;;;5084758;28;20045;-75
2022/11/08 04:59:34;;;;;;;57.33;43.85;;;;;;;;;;5085387;28;20447;-76
2022/11/08 05:01:59;;;;;;;58.72;44.90;;;;;;;;;;5082106;28;20421;-74
2022/11/08 05:04:24;;;;;;;54.70;42.65;;;;;;;;;;5076074;28;20420;-77
2022/11/08 05:06:50;;;;;;;58.65;44.45;;;;;;;;;;5081098;28;20440;-75
2022/11/08 05:09:15;;;;;;;53.70;41.47;;;;;;;;;;5069806;28;20448;-73
2022/11/08 05:11:40;;;;;;;51.17;39.35;;;;;;;;;;5069383;28;20489;-75
2022/11/08 05:14:06;;;;;;;56.95;42.58;;;;;;;;;;5071088;28;20490;-76
2022/11/08 05:16:31;;;;;;;57.00;43.20;;;;;;;;;;5070856;28;20026;-76
2022/11/08 05:18:56;;;;;;;56.38;43.88;;;;;;;;;;5073368;28;20093;-74
2022/11/08 05:24:07;;;;;;;60.47;46.70;;;;;;;;;;5069891;28;21054;-75
2022/11/08 05:26:33;;;;;;;64.70;48.28;;;;;;;;;;5071843;28;20028;-72
2022/11/08 05:28:59;;;;;;;65.78;51.15;;;;;;;;;;5084262;28;20490;-78
2022/11/08 05:31:24;;;;;;;77.22;63.58;;;;;;;;;;5084638;28;20639;-76
2022/11/08 05:33:51;;;;;;;68.80;54.33;;;;;;;;;;5084025;28;20462;-74
2022/11/08 05:36:17;;;;;;;63.53;51.40;;;;;;;;;;5082907;28;20028;-74
2022/11/08 05:38:42;;;;;;;60.03;46.78;;;;;;;;;;5071593;28;20042;-76
2022/11/08 05:41:12;;;;;;;74.80;66.15;;;;;;;;;;5076734;28;20032;-74
2022/11/08 05:43:37;;;;;;;;;;;;;;;;;;5077724;28;20031;-74
2022/11/08 05:46:02;;;;;;;54.87;43.33;;;;;;;;;;5085010;28;19908;-73
2022/11/08 05:48:27;;;;;;;56.40;42.10;;;;;;;;;;5083663;28;20670;-74
2022/11/08 05:50:53;;;;;;;54.83;41.50;;;;;;;;;;5080701;28;20085;-75
2022/11/08 05:53:18;;;;;;;53.17;39.20;;;;;;;;;;5084899;28;20028;-74
2022/11/08 05:55:44;;;;;;;56.95;44.17;;;;;;;;;;5083259;28;20347;-73
2022/11/08 05:58:09;;;;;;;57.60;44.30;;;;;;;;;;5081292;28;20028;-78
2022/11/08 06:00:35;;;;;;;58.70;47.97;;;;;;;;;;5084086;28;20085;-75
2022/11/08 06:03:00;;;;;;;51.65;43.47;;;;;;;;;;5082480;28;20029;-75
2022/11/08 06:05:28;;;;;;;85.60;66.65;;;;;;;;;;5074213;28;20447;-75
2022/11/08 06:07:53;;;;;;;212.52;170.35;;;;;;;;;;5044441;28;20048;-75
2022/11/08 06:10:19;;;;;;;168.85;129.48;;;;;;;;;;5046186;28;20033;-75
2022/11/08 06:12:44;;;;;;;168.82;137.35;;;;;;;;;;5046423;28;20036;-77
2022/11/08 06:15:09;;;;;;;81.70;67.10;;;;;;;;;;5047096;28;20456;-76
2022/11/08 06:17:35;;;;;;;59.45;47.20;;;;;;;;;;5058324;28;20384;-74
2022/11/08 06:20:00;;;;;;;65.70;51.80;;;;;;;;;;5045734;28;20036;-76
2022/11/08 06:22:28;;;;;;;69.25;53.67;;;;;;;;;;5045005;28;20036;-76
2022/11/08 06:24:53;;;;;;;117.32;84.43;;;;;;;;;;5046060;28;20024;-74
2022/11/08 06:27:19;;;;;;;89.28;70.75;;;;;;;;;;5045331;28;20055;-78
2022/11/08 06:29:44;;;;;;;67.38;52.95;;;;;;;;;;5046106;28;20252;-75
2022/11/08 06:32:09;;;;;;;79.05;56.88;;;;;;;;;;5028425;28;20448;-74
2022/11/08 06:34:35;;;;;;;77.47;57.67;;;;;;;;;;5052912;28;20223;-72
2022/11/08 06:37:00;;;;;;;61.58;46.97;;;;;;;;;;5056984;28;20120;-73
2022/11/08 06:39:26;;;;;;;54.67;41.97;;;;;;;;;;5060368;28;20455;-72
2022/11/08 06:41:51;;;;;;;65.97;49.33;;;;;;;;;;5057852;28;20063;-71
2022/11/08 06:44:17;;;;;;;66.40;53.70;;;;;;;;;;5059507;28;20399;-74
2022/11/08 06:46:42;;;;;;;62.03;50.10;;;;;;;;;;5048963;28;20450;-74
2022/11/08 06:49:08;;;;;;;67.53;53.45;;;;;;;;;;5053104;28;20056;-75
2022/11/08 06:51:33;;;;;;;72.70;58.60;;;;;;;;;;5040341;28;20580;-76
2022/11/08 06:53:59;;;;;;;130.80;116.38;;;;;;;;;;5082199;28;20028;-73
2022/11/08 06:56:24;;;;;;;94.13;79.05;;;;;;;;;;5071250;28;20035;-73
2022/11/08 06:58:51;;;;;;;82.72;67.75;;;;;;;;;;5081099;28;20035;-73
2022/11/08 07:01:17;;;;;;;66.10;56.38;;;;;;;;;;5082350;28;20137;-73
2022/11/08 07:03:43;;;;;;;59.78;50.90;;;;;;;;;;5083248;28;20020;-75
2022/11/08 07:06:08;;;;;;;50.67;42.33;;;;;;;;;;5082410;28;20024;-76
2022/11/08 07:08:34;;;;;;;50.38;39.95;;;;;;;;;;5082408;28;20093;-74
2022/11/08 07:10:59;;;;;;;47.67;39.40;;;;;;;;;;5082733;28;20102;-73
2022/11/08 07:13:25;;;;;;;51.65;40.80;;;;;;;;;;5068970;28;20043;-74
2022/11/08 07:15:50;;;;;;;50.90;41.80;;;;;;;;;;5067633;28;20162;-73
2022/11/08 07:18:17;;;;;;;81.00;64.05;;;;;;;;;;5081877;28;20079;-75
2022/11/08 07:20:42;;;;;;;57.00;44.67;;;;;;;;;;5079835;28;20105;-75
2022/11/08 07:23:08;;;;;;;59.58;47.67;;;;;;;;;;5081058;28;20028;-73
2022/11/08 07:25:34;;;;;;;69.45;61.58;;;;;;;;;;5072938;28;20024;-77
2022/11/08 07:28:00;;;;;;;72.90;62.00;;;;;;;;;;5067356;28;20039;-72
2022/11/08 07:30:26;;;;;;;69.00;61.42;;;;;;;;;;5068841;28;20024;-73
2022/11/08 07:32:52;;;;;;;64.63;54.47;;;;;;;;;;5072983;28;20375;-72
2022/11/08 07:35:17;;;;;;;65.25;53.97;;;;;;;;;;5067350;28;20081;-73
2022/11/08 07:37:43;;;;;;;66.18;55.13;;;;;;;;;;5078745;28;20354;-72
2022/11/08 07:40:09;;;;;;;98.85;85.80;;;;;;;;;;5069156;28;20020;-74
2022/11/08 07:42:37;;;;;;;61.50;51.50;;;;;;;;;;5072951;28;20034;-73
2022/11/08 07:45:04;;;;;;;69.78;58.35;;;;;;;;;;5078737;28;20020;-75
2022/11/08 07:47:29;;;;;;;57.40;45.10;;;;;;;;;;5071283;28;20032;-73
2022/11/08 07:49:54;;;;;;;121.55;91.13;;;;;;;;;;5078657;28;20024;-73
2022/11/08 07:52:19;;;;;;;48.92;41.20;;;;;;;;;;5080890;28;20031;-76
2022/11/08 07:54:45;;;;;;;49.30;43.97;;;;;;;;;;5067356;28;20478;-74
2022/11/08 07:57:10;;;;;;;57.70;48.70;;;;;;;;;;5066131;28;20388;-74
2022/11/08 07:59:35;;;;;;;49.15;42.55;;;;;;;;;;5074027;28;20108;-73
2022/11/08 08:02:01;;;;;;;44.20;37.97;;;;;;;;;;5067158;28;20028;-75
2022/11/08 08:04:27;;;;;;;45.83;38.20;;;;;;;;;;5076949;28;20046;-71
2022/11/08 08:06:53;;;;;;;53.28;41.45;;;;;;;;;;5062787;28;20035;-74
2022/11/08 08:09:18;;;;;;;53.72;41.85;;;;;;;;;;5076984;28;20024;-73
2022/11/08 08:11:43;;;;;;;54.70;43.35;;;;;;;;;;5080325;28;20455;-72
2022/11/08 08:14:08;;;;;;;55.58;42.03;;;;;;;;;;5066753;28;20031;-71
2022/11/08 08:16:35;;;;;;;53.10;44.15;;;;;;;;;;5066177;28;20028;-72
2022/11/08 08:19:01;;;;;;;45.88;37.03;;;;;;;;;;5070206;28;20048;-72
2022/11/08 08:21:26;;;;;;;61.30;42.70;;;;;;;;;;5079917;28;20367;-76
2022/11/08 08:23:52;;;;;;;59.75;42.58;;;;;;;;;;5063776;28;20706;-72
2022/11/08 08:26:17;;;;;;;48.22;38.17;;;;;;;;;;5079702;28;20686;-74
2022/11/08 08:28:42;;;;;;;51.72;38.45;;;;;;;;;;5078319;28;20108;-73
2022/11/08 08:31:08;;;;;;;66.38;45.55;;;;;;;;;;5066979;28;20109;-72
2022/11/08 08:33:33;;;;;;;51.25;38.53;;;;;;;;;;5066539;28;20032;-74
2022/11/08 08:36:00;;;;;;;51.33;40.13;;;;;;;;;;5067817;28;20035;-72
2022/11/08 08:38:26;;;;;;;51.30;36.15;;;;;;;;;;5066736;28;20042;-72
2022/11/08 08:40:51;;;;;;;54.35;40.72;;;;;;;;;;5067803;28;20949;-74
2022/11/08 08:43:16;;;;;;;43.25;35.92;;;;;;;;;;5066566;28;20506;-73
2022/11/08 08:45:42;;;;;;;45.95;37.83;;;;;;;;;;5075440;28;20024;-74
2022/11/08 08:48:08;;;;;;;49.42;39.35;;;;;;;;;;5079840;28;20375;-74
2022/11/08 08:50:33;;;;;;;47.58;37.03;;;;;;;;;;5081967;28;20020;-72
2022/11/08 08:53:02;;;;;;;47.95;40.00;;;;;;;;;;5078820;28;20024;-72
2022/11/08 08:55:28;;;;;;;45.75;38.88;;;;;;;;;;5072960;28;20024;-72
2022/11/08 08:57:54;;;;;;;52.45;40.70;;;;;;;;;;5084286;28;20039;-71
2022/11/08 09:00:19;;;;;;;51.10;42.25;;;;;;;;;;5084109;28;20059;-71
2022/11/08 09:02:45;;;;;;;52.80;43.47;;;;;;;;;;5083219;28;20024;-73
2022/11/08 09:05:11;;;;;;;54.85;40.78;;;;;;;;;;5077786;28;20671;-73
2022/11/08 09:07:37;;;;;;;42.97;37.58;;;;;;;;;;5079249;28;20120;-72
2022/11/08 09:10:02;;;;;;;47.17;37.53;;;;;;;;;;5082983;28;21048;-73
2022/11/08 09:12:28;;;;;;;46.88;38.67;;;;;;;;;;5082837;28;20035;-71
2022/11/08 09:14:53;;;;;;;48.50;39.45;;;;;;;;;;5080482;28;20027;-72
2022/11/08 09:17:18;;;;;;;54.38;41.83;;;;;;;;;;5071274;28;20044;-72
2022/11/08 09:19:45;;;;;;;53.22;41.55;;;;;;;;;;5073774;28;20065;-75
2022/11/08 09:22:10;;;;;;;53.15;42.63;;;;;;;;;;5083893;28;20016;-73
2022/11/08 09:24:35;;;;;;;44.03;36.95;;;;;;;;;;5084254;28;20020;-75
2022/11/08 09:27:02;;;;;;;52.35;36.45;;;;;;;;;;5083070;28;20040;-74
2022/11/08 09:29:30;;;;;;;58.40;43.63;;;;;;;;;;5074216;28;20115;-72
2022/11/08 09:31:56;;;;;;;47.35;38.03;;;;;;;;;;5068699;28;20435;-74
2022/11/08 09:34:21;;;;;;;70.38;53.92;;;;;;;;;;5068564;28;20028;-71
2022/11/08 09:36:47;;;;;;;40.10;33.83;;;;;;;;;;5070202;28;20336;-72
2022/11/08 09:39:12;;;;;;;33.05;27.40;;;;;;;;;;5075506;28;20118;-74
2022/11/08 09:41:57;;;;;;;50.22;38.35;;;;;;;;;;5069551;28;20023;-71
2022/11/08 09:44:26;;;;;;;51.25;43.67;;;;;;;;;;5057472;28;20056;-76
2022/11/08 09:46:54;;;;;;;41.03;36.30;;;;;;;;;;5067457;28;20071;-72
2022/11/08 09:49:22;;;;;;;63.85;51.63;;;;;;;;;;5070633;28;20469;-72
2022/11/08 09:51:47;;;;;;;98.90;73.60;;;;;;;;;;5083157;28;20031;-74
2022/11/08 09:54:16;;;;;;;154.20;111.60;;;;;;;;;;5082602;28;20032;-72
2022/11/08 09:56:42;;;;;;;73.03;55.30;;;;;;;;;;5074064;28;20035;-72
2022/11/08 09:59:26;;;;;;;78.20;60.38;;;;;;;;;;5069322;28;20037;-76
2022/11/08 10:01:51;;;;;;;58.08;43.33;;;;;;;;;;5066902;28;20024;-73
2022/11/08 10:04:19;;;;;;;40.67;32.72;;;;;;;;;;5066858;28;20121;-73
2022/11/08 10:06:48;;;;;;;44.20;35.20;;;;;;;;;;5066606;28;20036;-76
2022/11/08 10:09:32;;;;;;;51.30;40.78;;;;;;;;;;5067800;28;20024;-74
2022/11/08 10:12:12;;;;;;;47.50;39.47;;;;;;;;;;5082337;28;20043;-74
2022/11/08 10:14:41;;;;;;;70.80;51.30;;;;;;;;;;5074112;28;20032;-74
2022/11/08 10:17:44;;;;;;;87.40;63.40;;;;;;;;;;5080310;28;20165;-76
2022/11/08 10:20:19;;;;;;;52.13;43.08;;;;;;;;;;5048665;28;20055;-72
2022/11/08 10:22:44;;;;;;;46.60;38.85;;;;;;;;;;5083099;28;20028;-73
2022/11/08 10:25:23;;;;;;;48.10;39.22;;;;;;;;;;5083175;28;20085;-73
2022/11/08 10:27:50;;;;;;;40.03;34.58;;;;;;;;;;5081515;28;20419;-72
2022/11/08 10:30:24;;;;;;;44.38;38.85;;;;;;;;;;5084016;28;20032;-76
2022/11/08 10:32:55;;;;;;;55.50;44.35;;;;;;;;;;5083004;28;20048;-73
2022/11/08 10:35:25;;;;;;;47.05;39.00;;;;;;;;;;5083801;28;20024;-74
2022/11/08 10:37:52;;;;;;;39.28;34.35;;;;;;;;;;5083691;28;20032;-72
2022/11/08 10:40:36;;;;;;;55.50;49.15;;;;;;;;;;5080327;28;20540;-73
2022/11/08 10:43:06;;;;;;;64.57;57.88;;;;;;;;;;5065589;28;20024;-73
2022/11/08 10:45:31;;;;;;;;;;;;;;;;;;5083495;28;20028;-73
2022/11/08 10:47:56;;;;;;;111.17;99.43;;;;;;;;;;5083560;28;20348;-74
2022/11/08 10:50:30;;;;;;;82.25;73.55;;;;;;;;;;5080284;28;20035;-72
2022/11/08 10:52:59;;;;;;;75.63;67.90;;;;;;;;;;5082595;28;20509;-74
2022/11/08 10:55:39;;;;;;;71.80;64.38;;;;;;;;;;5081912;28;20133;-76
2022/11/08 10:58:24;;;;;;;42.30;36.67;;;;;;;;;;5065589;28;20088;-74
2022/11/08 11:01:00;;;;;;;34.53;30.80;;;;;;;;;;5066914;28;20078;-73
2022/11/08 11:03:29;;;;;;;31.50;28.10;;;;;;;;;;5076150;28;20077;-76
2022/11/08 11:06:01;;;;;;;32.58;29.20;;;;;;;;;;5081903;28;20443;-74
2022/11/08 11:08:27;;;;;;;52.40;43.63;;;;;;;;;;5079426;28;20032;-76
2022/11/08 11:10:53;;;;;;;71.57;59.38;;;;;;;;;;5080038;28;20032;-74
2022/11/08 11:13:22;;;;;;;81.80;67.22;;;;;;;;;;5080909;28;20738;-73
2022/11/08 11:15:52;;;;;;;138.50;102.43;;;;;;;;;;5081666;28;20028;-73
2022/11/08 11:18:20;;;;;;;55.88;44.35;;;;;;;;;;5081125;28;20137;-73
2022/11/08 11:20:59;;;;;;;64.70;55.67;;;;;;;;;;5080951;28;20071;-74
2022/11/08 11:23:31;;;;;;;73.10;65.47;;;;;;;;;;5075179;28;20048;-74
2022/11/08 11:25:57;;;;;;;53.85;44.83;;;;;;;;;;5077528;28;20028;-76
2022/11/08 11:28:22;;;;;;;46.03;41.10;;;;;;;;;;5081290;28;20427;-74
2022/11/08 11:30:57;;;;;;;40.53;34.50;;;;;;;;;;5081282;28;20035;-76
2022/11/08 11:33:24;;;;;;;31.20;27.30;;;;;;;;;;5082204;28;20034;-74
2022/11/08 11:35:49;;;;;;;34.45;30.35;;;;;;;;;;5081803;28;20024;-77
2022/11/08 11:38:27;;;;;;;40.95;36.65;;;;;;;;;;5070449;28;20049;-78
2022/11/08 11:40:54;;;;;;;34.35;29.70;;;;;;;;;;5071306;28;20039;-75
2022/11/08 11:43:25;;;;;;;40.38;28.40;;;;;;;;;;5066575;28;20028;-79
2022/11/08 11:46:09;;;;;;;39.08;30.63;;;;;;;;;;5082069;28;20024;-78
2022/11/08 11:48:45;;;;;;;33.60;30.10;;;;;;;;;;5078086;28;20360;-78
2022/11/08 11:51:11;;;;;;;39.25;34.70;;;;;;;;;;5074918;28;20039;-78
2022/11/08 11:53:37;;;;;;;45.70;36.40;;;;;;;;;;5078095;28;20016;-76
2022/11/08 11:56:04;;;;;;;33.03;29.27;;;;;;;;;;5070389;28;20024;-79
2022/11/08 11:58:49;;;;;;;35.75;32.15;;;;;;;;;;5074395;28;20020;-76
2022/11/08 12:01:33;;;;;;;34.80;31.15;;;;;;;;;;5079368;28;20024;-76
2022/11/08 12:04:09;;;;;;;37.30;33.55;;;;;;;;;;5081520;28;20020;-78
2022/11/08 12:06:41;;;;;;;32.60;28.20;;;;;;;;;;5082118;28;20432;-76
2022/11/08 12:09:14;;;;;;;43.22;36.25;;;;;;;;;;5080567;28;20059;-77
2022/11/08 12:11:52;;;;;;;75.15;59.55;;;;;;;;;;5080689;28;20035;-75
2022/11/08 12:14:35;;;;;;;36.97;31.50;;;;;;;;;;5080364;28;20134;-74
2022/11/08 12:17:03;;;;;;;35.85;32.03;;;;;;;;;;5079939;28;20020;-75
2022/11/08 12:19:47;;;;;;;31.65;28.25;;;;;;;;;;5081702;28;20548;-75
2022/11/08 12:22:31;;;;;;;25.98;22.92;;;;;;;;;;5081270;28;20024;-75
2022/11/08 12:25:05;;;;;;;33.58;29.45;;;;;;;;;;5082373;28;20039;-74
2022/11/08 12:27:50;;;;;;;35.90;26.92;;;;;;;;;;5081197;28;20028;-75
2022/11/08 12:30:20;;;;;;;28.55;25.10;;;;;;;;;;5065709;28;21088;-75
2022/11/08 12:32:51;;;;;;;42.47;31.33;;;;;;;;;;5085418;28;20020;-75
2022/11/08 12:35:35;;;;;;;31.77;28.48;;;;;;;;;;5086208;28;20035;-75
2022/11/08 12:38:10;;;;;;;34.60;27.40;;;;;;;;;;5086004;28;20047;-75
2022/11/08 12:40:35;;;;;;;38.00;33.92;;;;;;;;;;5086007;28;20027;-75
2022/11/08 12:43:12;;;;;;;38.13;29.20;;;;;;;;;;5084053;28;20028;-75
2022/11/08 12:45:45;;;;;;;37.30;27.90;;;;;;;;;;5085127;28;20362;-74
2022/11/08 12:48:29;;;;;;;33.13;23.45;;;;;;;;;;5086023;28;20038;-75
2022/11/08 12:51:10;;;;;;;44.00;38.03;;;;;;;;;;5083334;28;20492;-75
2022/11/08 12:53:51;;;;;;;53.25;44.35;;;;;;;;;;5069373;28;20107;-76
2022/11/08 12:56:20;;;;;;;59.45;44.80;;;;;;;;;;5085358;28;20339;-75
2022/11/08 12:58:46;;;;;;;43.17;36.07;;;;;;;;;;5085301;28;20036;-75
2022/11/08 13:01:13;;;;;;;31.27;28.08;;;;;;;;;;5084537;28;20115;-77
2022/11/08 13:03:38;;;;;;;37.75;33.35;;;;;;;;;;5085475;28;20031;-74
2022/11/08 13:06:09;;;;;;;42.65;34.22;;;;;;;;;;5084046;28;20016;-74
2022/11/08 13:08:52;;;;;;;49.40;39.17;;;;;;;;;;5078233;28;20088;-74
2022/11/08 13:11:23;;;;;;;29.88;26.00;;;;;;;;;;5068993;28;20027;-77
2022/11/08 13:13:53;;;;;;;58.58;40.88;;;;;;;;;;5070731;28;20455;-75
2022/11/08 13:16:20;;;;;;;80.95;57.10;;;;;;;;;;5071070;28;20038;-74
2022/11/08 13:18:52;;;;;;;63.28;44.10;;;;;;;;;;5073528;28;20052;-76
2022/11/08 13:21:27;;;;;;;66.97;53.42;;;;;;;;;;5071341;28;20020;-77
2022/11/08 13:24:01;;;;;;;46.90;36.42;;;;;;;;;;5081667;28;20059;-74
2022/11/08 13:26:30;;;;;;;32.47;28.23;;;;;;;;;;5069867;28;20020;-79
2022/11/08 13:29:14;;;;;;;39.10;30.63;;;;;;;;;;5069864;28;20028;-77
2022/11/08 13:31:57;;;;;;;56.30;45.30;;;;;;;;;;5083887;28;20378;-77
2022/11/08 13:34:40;;;;;;;39.30;32.45;;;;;;;;;;5084400;28;20057;-75
2022/11/08 13:37:18;;;;;;;30.52;27.27;;;;;;;;;;5084454;28;20149;-76
2022/11/08 13:40:02;;;;;;;51.47;36.80;;;;;;;;;;5082346;28;20020;-74
2022/11/08 13:42:34;;;;;;;65.20;48.33;;;;;;;;;;5075657;28;20027;-75
2022/11/08 13:45:13;;;;;;;50.78;45.08;;;;;;;;;;5081850;28;20474;-76
2022/11/08 13:47:41;;;;;;;31.50;27.20;;;;;;;;;;5083674;28;20032;-75
2022/11/08 13:50:25;;;;;;;40.03;28.52;;;;;;;;;;5083393;28;20079;-73
2022/11/08 13:53:08;;;;;;;36.65;30.40;;;;;;;;;;5083998;28;20339;-74
2022/11/08 13:55:43;;;;;;;40.45;33.90;;;;;;;;;;5081499;28;20028;-74
2022/11/08 13:58:27;;;;;;;28.67;24.48;;;;;;;;;;5084111;28;20028;-74
2022/11/08 14:00:52;;;;;;;34.13;30.52;;;;;;;;;;5083689;28;20439;-73
2022/11/08 14:03:33;;;;;;;33.30;25.80;;;;;;;;;;5084493;28;20028;-73
2022/11/08 14:06:07;;;;;;;30.60;27.23;;;;;;;;;;5081429;28;20074;-74
2022/11/08 14:08:35;;;;;;;43.92;31.80;;;;;;;;;;5083915;28;20027;-74
2022/11/08 14:11:00;;;;;;;39.38;28.40;;;;;;;;;;5083542;28;20067;-77
2022/11/08 14:13:26;;;;;;;30.45;25.67;;;;;;;;;;5083843;28;20051;-74
2022/11/08 14:15:55;;;;;;;39.28;32.08;;;;;;;;;;5085134;28;20477;-74
2022/11/08 14:18:20;;;;;;;;;;;;;;;;;;5084657;28;20055;-75
2022/11/08 14:20:46;;;;;;;38.27;25.83;;;;;;;;;;5083611;28;19916;-73
2022/11/08 14:23:18;;;;;;;42.80;29.65;;;;;;;;;;5084085;28;20028;-76
2022/11/08 14:25:55;;;;;;;37.30;30.55;;;;;;;;;;5082890;28;20016;-74
2022/11/08 14:28:22;;;;;;;37.05;30.83;;;;;;;;;;5082533;28;20030;-74
2022/11/08 14:30:48;;;;;;;28.73;25.08;;;;;;;;;;5083390;28;20141;-74
2022/11/08 14:33:18;;;;;;;30.73;27.30;;;;;;;;;;5082456;28;20195;-74
2022/11/08 14:36:10;;;;;;;29.20;24.02;;;;;;;;;;5083112;28;20032;-75
2022/11/08 14:38:43;;;;;;;33.20;29.58;;;;;;;;;;5079627;28;20065;-74
2022/11/08 14:41:12;;;;;;;40.03;33.10;;;;;;;;;;5082332;28;20025;-75
2022/11/08 14:43:42;;;;;;;49.00;43.80;;;;;;;;;;5071238;28;20066;-74